Time;durP1;ratioP1;P1;durP2;ratioP2;P2;SDS_P1;SDS_P2;PMS_P1;PMS_P2;Temp;Humidity;BMP_temperature;BMP_pressure;BME280_temperature;BME280_humidity;BME280_pressure;Samples;Min_cycle;Max_cycle;Signal;HPM_P1;HPM_P2
2022/09/01 00:00:27;;;;;;;;;6.00;6.00;;;;;;;;5066460;27;45497;-77
2022/09/01 00:02:53;;;;;;;;;7.00;7.00;;;;;;;;5100847;27;45307;-80
2022/09/01 00:05:18;;;;;;;;;6.33;6.00;;;;;;;;5101249;27;45407;-76
2022/09/01 00:07:44;;;;;;;;;8.67;8.00;;;;;;;;5100467;27;45489;-78
2022/09/01 00:10:09;;;;;;;;;5.67;5.67;;;;;;;;5100725;27;45380;-77
2022/09/01 00:12:35;;;;;;;;;4.67;4.67;;;;;;;;5100382;27;45144;-80
2022/09/01 00:15:00;;;;;;;;;5.67;5.67;;;;;;;;5100625;27;45450;-77
2022/09/01 00:17:26;;;;;;;;;8.33;6.00;;;;;;;;5100567;27;46442;-76
2022/09/01 00:19:51;;;;;;;;;6.67;6.67;;;;;;;;5080253;27;45230;-77
2022/09/01 00:22:16;;;;;;;;;5.67;5.33;;;;;;;;5080107;27;45289;-76
2022/09/01 00:24:42;;;;;;;;;9.67;6.00;;;;;;;;5080240;27;45415;-77
2022/09/01 00:27:07;;;;;;;;;4.33;3.33;;;;;;;;5079896;27;45312;-77
2022/09/01 00:29:32;;;;;;;;;7.67;5.33;;;;;;;;5079689;28;45414;-76
2022/09/01 00:31:58;;;;;;;;;9.00;6.00;;;;;;;;5080055;28;45210;-77
2022/09/01 00:34:23;;;;;;;;;6.67;5.33;;;;;;;;5080074;28;45435;-80
2022/09/01 00:36:48;;;;;;;;;5.00;5.00;;;;;;;;5089603;27;46428;-76
2022/09/01 00:39:14;;;;;;;;;7.00;6.00;;;;;;;;5100162;27;45419;-77
2022/09/01 00:41:41;;;;;;;;;7.00;7.00;;;;;;;;5100369;27;45285;-78
2022/09/01 00:44:10;;;;;;;;;6.33;6.33;;;;;;;;5100068;27;45761;-77
2022/09/01 00:46:37;;;;;;;;;8.33;5.33;;;;;;;;5099977;27;46521;-77
2022/09/01 00:49:09;;;;;;;;;5.67;5.67;;;;;;;;5100169;27;45363;-77
2022/09/01 00:51:37;;;;;;;;;6.00;5.00;;;;;;;;5099990;27;45291;-77
2022/09/01 00:54:03;;;;;;;;;5.67;5.67;;;;;;;;5081950;27;45431;-77
2022/09/01 00:56:30;;;;;;;;;4.00;4.00;;;;;;;;5079339;28;46764;-77
2022/09/01 00:58:56;;;;;;;;;6.33;4.33;;;;;;;;5079379;28;45308;-77
2022/09/01 01:01:22;;;;;;;;;9.00;6.00;;;;;;;;5079585;28;45439;-81
2022/09/01 01:03:47;;;;;;;;;10.00;6.67;;;;;;;;5079563;27;45294;-77
2022/09/01 01:06:15;;;;;;;;;6.33;4.33;;;;;;;;5079486;28;45739;-77
2022/09/01 01:08:48;;;;;;;;;6.33;6.33;;;;;;;;5079061;27;45244;-78
2022/09/01 01:11:17;;;;;;;;;7.00;7.00;;;;;;;;5082064;27;45415;-76
2022/09/01 01:13:50;;;;;;;;;8.33;6.00;;;;;;;;5088731;27;45223;-75
2022/09/01 01:16:15;;;;;;;;;6.33;6.00;;;;;;;;5098717;27;46343;-75
2022/09/01 01:18:41;;;;;;;;;8.67;7.00;;;;;;;;5082067;27;45300;-77
2022/09/01 01:24:01;;;;;;;;;6.00;5.33;;;;;;;;4996812;28;45375;-76
2022/09/01 01:26:27;;;;;;;;;8.00;8.00;;;;;;;;4995896;28;45512;-76
2022/09/01 01:28:53;;;;;;;;;7.33;6.33;;;;;;;;4996510;28;45454;-74
2022/09/01 01:31:21;;;;;;;;;7.33;5.67;;;;;;;;5016566;28;45428;-78
2022/09/01 01:33:48;;;;;;;;;6.33;5.00;;;;;;;;5016553;28;45442;-76
2022/09/01 01:36:15;;;;;;;;;6.33;6.33;;;;;;;;5017299;28;46511;-76
2022/09/01 01:38:42;;;;;;;;;6.67;6.00;;;;;;;;5015922;28;45370;-78
2022/09/01 01:41:08;;;;;;;;;6.33;6.33;;;;;;;;5016320;28;45195;-74
2022/09/01 01:43:33;;;;;;;;;5.00;5.00;;;;;;;;5009573;28;45518;-77
2022/09/01 01:46:01;;;;;;;;;7.67;7.67;;;;;;;;4996025;28;46438;-75
2022/09/01 01:48:27;;;;;;;;;5.67;5.67;;;;;;;;4996229;28;45393;-75
2022/09/01 01:50:53;;;;;;;;;6.00;5.67;;;;;;;;5013748;28;45785;-77
2022/09/01 01:53:19;;;;;;;;;5.67;5.33;;;;;;;;5016674;28;45366;-77
2022/09/01 01:55:48;;;;;;;;;10.00;10.00;;;;;;;;5015898;28;45454;-78
2022/09/01 01:58:14;;;;;;;;;9.33;7.33;;;;;;;;5016096;28;45413;-79
2022/09/01 02:00:41;;;;;;;;;6.00;6.00;;;;;;;;5037718;28;45355;-75
2022/09/01 02:03:06;;;;;;;;;5.33;5.33;;;;;;;;5078852;28;45422;-78
2022/09/01 02:05:34;;;;;;;;;6.00;6.00;;;;;;;;5083131;27;45403;-75
2022/09/01 02:08:03;;;;;;;;;4.00;4.00;;;;;;;;5098558;27;45435;-76
2022/09/01 02:10:30;;;;;;;;;6.00;6.00;;;;;;;;5099049;27;45399;-77
2022/09/01 02:13:02;;;;;;;;;8.00;6.67;;;;;;;;5098761;27;45246;-79
2022/09/01 02:15:28;;;;;;;;;9.67;6.00;;;;;;;;5118806;27;47426;-76
2022/09/01 02:17:55;;;;;;;;;6.00;6.00;;;;;;;;5119349;27;45338;-76
2022/09/01 02:20:23;;;;;;;;;8.00;6.67;;;;;;;;5119402;27;45306;-77
2022/09/01 02:22:50;;;;;;;;;9.33;7.00;;;;;;;;5118078;27;45169;-74
2022/09/01 02:25:17;;;;;;;;;8.33;7.00;;;;;;;;5118919;27;46451;-76
2022/09/01 02:27:42;;;;;;;;;5.33;5.00;;;;;;;;5119033;27;45247;-75
2022/09/01 02:30:11;;;;;;;;;5.67;5.67;;;;;;;;5119283;27;45399;-75
2022/09/01 02:32:37;;;;;;;;;9.33;6.33;;;;;;;;5119291;27;45251;-76
2022/09/01 02:35:06;;;;;;;;;7.00;5.33;;;;;;;;5118840;27;46219;-76
2022/09/01 02:37:31;;;;;;;;;7.67;7.67;;;;;;;;5109026;27;45504;-77
2022/09/01 02:39:57;;;;;;;;;6.00;6.00;;;;;;;;5098266;27;45199;-75
2022/09/01 02:42:26;;;;;;;;;8.33;7.33;;;;;;;;5098706;27;45520;-75
2022/09/01 02:44:54;;;;;;;;;6.67;6.67;;;;;;;;5098126;27;47085;-76
2022/09/01 02:47:22;;;;;;;;;7.67;7.00;;;;;;;;5098006;27;45332;-74
2022/09/01 02:49:47;;;;;;;;;6.00;6.00;;;;;;;;5098333;27;45393;-74
2022/09/01 02:52:14;;;;;;;;;5.67;5.33;;;;;;;;5098191;27;45219;-75
2022/09/01 02:54:40;;;;;;;;;7.00;5.33;;;;;;;;5111411;27;47038;-74
2022/09/01 02:57:07;;;;;;;;;7.00;7.00;;;;;;;;5118636;27;45791;-74
2022/09/01 02:59:34;;;;;;;;;6.00;6.00;;;;;;;;5118784;27;45373;-75
2022/09/01 03:02:00;;;;;;;;;6.00;6.00;;;;;;;;5118789;27;45422;-75
2022/09/01 03:04:25;;;;;;;;;7.67;6.00;;;;;;;;5118365;27;45370;-75
2022/09/01 03:06:53;;;;;;;;;8.00;6.33;;;;;;;;5118321;27;45221;-78
2022/09/01 03:09:18;;;;;;;;;6.33;6.33;;;;;;;;5118723;27;45416;-74
2022/09/01 03:11:46;;;;;;;;;6.00;6.00;;;;;;;;5108640;27;45390;-76
2022/09/01 03:14:11;;;;;;;;;8.67;6.67;;;;;;;;5097598;27;46296;-75
2022/09/01 03:16:38;;;;;;;;;9.67;8.00;;;;;;;;5097456;27;45390;-75
2022/09/01 03:19:06;;;;;;;;;4.67;4.67;;;;;;;;5097782;27;45381;-74
2022/09/01 03:21:31;;;;;;;;;6.00;6.00;;;;;;;;5098162;27;45268;-74
2022/09/01 03:23:57;;;;;;;;;7.33;6.00;;;;;;;;5097420;27;45911;-75
2022/09/01 03:26:23;;;;;;;;;7.00;7.00;;;;;;;;5099616;27;45355;-75
2022/09/01 03:28:48;;;;;;;;;10.33;8.00;;;;;;;;5118276;27;45336;-76
2022/09/01 03:31:14;;;;;;;;;7.00;5.33;;;;;;;;5118456;27;45447;-74
2022/09/01 03:33:40;;;;;;;;;8.67;7.67;;;;;;;;5118070;27;46928;-76
2022/09/01 03:36:06;;;;;;;;;5.00;5.00;;;;;;;;5118228;27;45424;-76
2022/09/01 03:38:33;;;;;;;;;6.67;6.67;;;;;;;;5118387;27;45452;-75
2022/09/01 03:41:00;;;;;;;;;7.00;7.00;;;;;;;;5118392;27;45520;-76
2022/09/01 03:43:28;;;;;;;;;8.33;8.00;;;;;;;;5116634;27;47184;-75
2022/09/01 03:45:54;;;;;;;;;8.00;6.67;;;;;;;;5118195;27;45258;-74
2022/09/01 03:48:20;;;;;;;;;5.67;5.67;;;;;;;;5119215;27;45305;-74
2022/09/01 03:50:46;;;;;;;;;4.00;4.00;;;;;;;;5121768;27;45622;-75
2022/09/01 03:53:14;;;;;;;;;7.67;6.67;;;;;;;;5121360;27;45569;-74
2022/09/01 03:55:43;;;;;;;;;7.00;6.00;;;;;;;;5121563;27;45218;-74
2022/09/01 03:58:10;;;;;;;;;8.00;6.00;;;;;;;;5121795;27;45362;-74
2022/09/01 04:00:42;;;;;;;;;7.00;7.00;;;;;;;;5104197;27;45288;-74
2022/09/01 04:03:09;;;;;;;;;10.33;8.00;;;;;;;;5100429;27;47342;-74
2022/09/01 04:05:36;;;;;;;;;6.00;6.00;;;;;;;;5100673;27;45437;-75
2022/09/01 04:08:04;;;;;;;;;6.67;6.33;;;;;;;;5100671;27;45308;-75
2022/09/01 04:10:35;;;;;;;;;8.00;5.00;;;;;;;;5100829;27;45477;-74
2022/09/01 04:13:04;;;;;;;;;5.33;5.33;;;;;;;;5100599;27;46605;-75
2022/09/01 04:15:31;;;;;;;;;7.67;6.33;;;;;;;;5099556;27;45223;-75
2022/09/01 04:18:09;;;;;;;;;10.33;8.00;;;;;;;;5112467;27;45366;-75
2022/09/01 04:20:49;;;;;;;;;8.00;6.33;;;;;;;;5121300;27;45378;-75
2022/09/01 04:23:25;;;;;;;;;8.33;6.33;;;;;;;;5121223;27;46759;-75
2022/09/01 04:25:52;;;;;;;;;5.33;5.33;;;;;;;;5121083;27;45432;-74
2022/09/01 04:28:24;;;;;;;;;7.67;6.00;;;;;;;;5120991;27;45234;-75
2022/09/01 04:30:57;;;;;;;;;9.00;7.00;;;;;;;;5121256;27;45280;-74
2022/09/01 04:33:27;;;;;;;;;7.33;7.33;;;;;;;;5119352;27;46415;-75
2022/09/01 04:35:55;;;;;;;;;10.33;9.00;;;;;;;;5120943;27;45237;-75
2022/09/01 04:38:22;;;;;;;;;7.33;7.33;;;;;;;;5120923;27;45459;-74
2022/09/01 04:40:48;;;;;;;;;9.00;6.00;;;;;;;;5120977;27;45417;-74
2022/09/01 04:43:13;;;;;;;;;5.67;5.00;;;;;;;;5120522;27;47147;-75
2022/09/01 04:45:39;;;;;;;;;9.00;6.00;;;;;;;;5120720;27;45203;-74
2022/09/01 04:48:05;;;;;;;;;9.00;6.00;;;;;;;;5120666;27;45420;-74
2022/09/01 04:50:31;;;;;;;;;6.67;6.00;;;;;;;;5108332;27;45268;-74
2022/09/01 04:53:01;;;;;;;;;7.33;6.00;;;;;;;;5099887;27;46671;-74
2022/09/01 04:55:28;;;;;;;;;7.00;7.00;;;;;;;;5099760;27;45468;-75
2022/09/01 04:57:56;;;;;;;;;9.00;5.00;;;;;;;;5100115;27;45291;-74
2022/09/01 05:00:21;;;;;;;;;7.67;6.33;;;;;;;;5098598;27;45330;-77
2022/09/01 05:02:47;;;;;;;;;9.67;5.67;;;;;;;;5099214;27;46758;-75
2022/09/01 05:05:12;;;;;;;;;8.00;5.67;;;;;;;;5105214;27;45329;-74
2022/09/01 05:07:37;;;;;;;;;5.33;5.33;;;;;;;;5120450;27;45262;-75
2022/09/01 05:10:03;;;;;;;;;7.00;7.00;;;;;;;;5120741;27;45414;-75
2022/09/01 05:12:28;;;;;;;;;8.33;8.00;;;;;;;;5120216;27;45510;-77
2022/09/01 05:14:54;;;;;;;;;10.33;8.33;;;;;;;;5120053;27;45829;-76
2022/09/01 05:17:20;;;;;;;;;10.00;6.00;;;;;;;;5120179;27;45334;-76
2022/09/01 05:19:46;;;;;;;;;11.00;7.00;;;;;;;;5120401;27;45450;-74
2022/09/01 05:22:12;;;;;;;;;8.00;8.00;;;;;;;;5121161;27;45649;-75
2022/09/01 05:24:37;;;;;;;;;9.67;7.00;;;;;;;;5140618;27;45310;-74
2022/09/01 05:27:06;;;;;;;;;7.33;5.67;;;;;;;;5122196;27;45344;-76
2022/09/01 05:29:33;;;;;;;;;8.67;6.33;;;;;;;;5141238;27;45439;-74
2022/09/01 05:31:59;;;;;;;;;8.67;8.67;;;;;;;;5140513;27;46391;-75
2022/09/01 05:34:28;;;;;;;;;13.00;9.00;;;;;;;;5118931;27;45461;-75
2022/09/01 05:36:58;;;;;;;;;13.00;8.33;;;;;;;;5110508;27;45494;-74
2022/09/01 05:39:24;;;;;;;;;11.67;10.00;;;;;;;;5099113;27;45784;-76
2022/09/01 05:41:51;;;;;;;;;10.33;8.67;;;;;;;;5099129;27;46667;-75
2022/09/01 05:44:17;;;;;;;;;7.33;7.33;;;;;;;;5099199;27;45399;-74
2022/09/01 05:46:43;;;;;;;;;10.33;9.00;;;;;;;;5099291;27;45315;-77
2022/09/01 05:49:12;;;;;;;;;6.67;6.67;;;;;;;;5099059;27;45444;-76
2022/09/01 05:51:40;;;;;;;;;8.00;8.00;;;;;;;;5098955;27;45500;-75
2022/09/01 05:54:08;;;;;;;;;7.00;7.00;;;;;;;;5098115;27;45565;-75
2022/09/01 05:56:38;;;;;;;;;9.00;7.67;;;;;;;;5099116;27;45355;-74
2022/09/01 05:59:03;;;;;;;;;9.00;9.00;;;;;;;;5099020;27;45417;-76
2022/09/01 06:01:32;;;;;;;;;10.00;8.33;;;;;;;;5098529;27;45456;-78
2022/09/01 06:03:58;;;;;;;;;11.67;10.33;;;;;;;;5098810;27;45404;-75
2022/09/01 06:06:25;;;;;;;;;8.33;7.00;;;;;;;;5098935;27;45483;-74
2022/09/01 06:08:51;;;;;;;;;7.67;7.67;;;;;;;;5117043;27;45390;-77
2022/09/01 06:11:17;;;;;;;;;9.33;6.67;;;;;;;;5117687;27;47497;-76
2022/09/01 06:13:43;;;;;;;;;12.00;9.00;;;;;;;;5116777;27;45532;-77
2022/09/01 06:16:10;;;;;;;;;15.33;10.67;;;;;;;;5118744;27;45492;-74
2022/09/01 06:18:36;;;;;;;;;11.00;11.00;;;;;;;;5118822;27;45433;-75
2022/09/01 06:21:07;;;;;;;;;8.00;8.00;;;;;;;;5118436;27;46132;-76
2022/09/01 06:23:32;;;;;;;;;16.33;11.33;;;;;;;;5119196;27;45444;-76
2022/09/01 06:25:58;;;;;;;;;8.33;7.67;;;;;;;;5117821;27;45210;-76
2022/09/01 06:28:24;;;;;;;;;9.00;7.67;;;;;;;;5119073;27;45470;-75
2022/09/01 06:30:50;;;;;;;;;9.67;7.67;;;;;;;;5117730;27;46851;-75
2022/09/01 06:33:16;;;;;;;;;10.67;7.33;;;;;;;;5117027;27;45465;-76
2022/09/01 06:35:43;;;;;;;;;10.67;8.67;;;;;;;;5118084;27;45474;-77
2022/09/01 06:38:09;;;;;;;;;9.33;8.00;;;;;;;;5117984;27;45303;-75
2022/09/01 06:40:35;;;;;;;;;10.00;6.67;;;;;;;;5117117;27;46207;-78
2022/09/01 06:43:06;;;;;;;;;12.33;8.33;;;;;;;;5116354;27;45383;-76
2022/09/01 06:45:32;;;;;;;;;14.00;11.00;;;;;;;;5118265;27;45414;-77
2022/09/01 06:47:59;;;;;;;;;9.33;9.33;;;;;;;;5118642;27;45471;-78
2022/09/01 06:50:25;;;;;;;;;7.33;7.33;;;;;;;;5118143;27;47265;-77
2022/09/01 06:53:02;;;;;;;;;13.33;11.33;;;;;;;;5117655;27;45379;-77
2022/09/01 06:55:30;;;;;;;;;14.00;11.00;;;;;;;;5118204;27;45349;-78
2022/09/01 06:57:56;;;;;;;;;8.33;8.00;;;;;;;;5117548;27;46055;-78
2022/09/01 07:00:22;;;;;;;;;11.00;10.33;;;;;;;;5117059;27;45514;-74
2022/09/01 07:02:52;;;;;;;;;14.33;10.00;;;;;;;;5118202;27;45450;-74
2022/09/01 07:05:18;;;;;;;;;9.00;9.00;;;;;;;;5112978;27;45817;-75
2022/09/01 07:07:50;;;;;;;;;9.33;9.00;;;;;;;;5112451;27;45503;-72
2022/09/01 07:10:19;;;;;;;;;13.33;11.33;;;;;;;;5113569;27;46257;-76
2022/09/01 07:12:44;;;;;;;;;12.33;9.00;;;;;;;;5117964;27;45528;-68
2022/09/01 07:15:10;;;;;;;;;16.33;13.00;;;;;;;;5113981;27;45420;-74
2022/09/01 07:17:40;;;;;;;;;10.00;8.67;;;;;;;;5116876;27;45406;-70
2022/09/01 07:20:06;;;;;;;;;12.67;10.33;;;;;;;;5114878;27;45361;-75
2022/09/01 07:22:31;;;;;;;;;13.67;12.00;;;;;;;;5115659;27;45370;-76
2022/09/01 07:24:57;;;;;;;;;12.67;12.67;;;;;;;;5119709;27;45372;-74
2022/09/01 07:27:26;;;;;;;;;12.33;10.33;;;;;;;;5121570;27;45329;-74
2022/09/01 07:29:55;;;;;;;;;11.00;10.00;;;;;;;;5121488;27;47508;-73
2022/09/01 07:32:22;;;;;;;;;14.00;12.33;;;;;;;;5105204;27;45420;-74
2022/09/01 07:34:47;;;;;;;;;17.00;13.67;;;;;;;;5100380;27;45649;-74
2022/09/01 07:37:12;;;;;;;;;10.33;10.33;;;;;;;;5100698;27;45448;-71
2022/09/01 07:39:43;;;;;;;;;14.00;12.67;;;;;;;;5100420;27;45478;-77
2022/09/01 07:42:08;;;;;;;;;12.00;11.00;;;;;;;;5100775;27;45353;-75
2022/09/01 07:44:36;;;;;;;;;12.67;12.67;;;;;;;;5100700;27;45443;-74
2022/09/01 07:47:03;;;;;;;;;13.67;12.33;;;;;;;;5100922;27;45169;-77
2022/09/01 07:49:29;;;;;;;;;11.67;10.67;;;;;;;;5099850;27;47430;-81
2022/09/01 07:51:55;;;;;;;;;14.67;12.67;;;;;;;;5100834;27;45308;-74
2022/09/01 07:54:22;;;;;;;;;15.00;11.33;;;;;;;;5100581;27;45410;-81
2022/09/01 07:56:49;;;;;;;;;15.67;13.33;;;;;;;;5100547;27;45549;-80
2022/09/01 07:59:14;;;;;;;;;10.67;8.33;;;;;;;;5100201;27;47084;-80
2022/09/01 08:01:41;;;;;;;;;10.33;10.33;;;;;;;;5100287;27;45291;-78
2022/09/01 08:04:07;;;;;;;;;14.67;10.67;;;;;;;;5100083;27;45443;-78
2022/09/01 08:06:33;;;;;;;;;15.00;13.67;;;;;;;;5100325;27;45322;-75
2022/09/01 08:08:59;;;;;;;;;14.67;12.00;;;;;;;;5100012;27;47013;-78
2022/09/01 08:11:28;;;;;;;;;12.33;12.00;;;;;;;;5100067;27;45582;-79
2022/09/01 08:13:57;;;;;;;;;12.67;12.67;;;;;;;;5100241;27;45322;-80
2022/09/01 08:16:22;;;;;;;;;16.67;14.33;;;;;;;;5101786;27;45227;-80
2022/09/01 08:18:48;;;;;;;;;11.67;9.00;;;;;;;;5119254;27;46524;-81
2022/09/01 08:21:14;;;;;;;;;11.00;11.00;;;;;;;;5117479;27;45597;-80
2022/09/01 08:23:39;;;;;;;;;12.00;11.67;;;;;;;;5116796;27;45564;-81
2022/09/01 08:26:08;;;;;;;;;13.33;12.33;;;;;;;;5119554;27;45549;-82
2022/09/01 08:28:34;;;;;;;;;14.33;12.00;;;;;;;;5118958;27;46500;-77
2022/09/01 08:30:59;;;;;;;;;14.33;14.00;;;;;;;;5118080;27;45211;-71
2022/09/01 08:33:25;;;;;;;;;11.00;11.00;;;;;;;;5119810;27;45442;-75
2022/09/01 08:35:51;;;;;;;;;12.33;12.00;;;;;;;;5118937;27;45484;-71
2022/09/01 08:38:16;;;;;;;;;18.67;12.33;;;;;;;;5116743;27;45479;-74
2022/09/01 08:40:42;;;;;;;;;13.00;12.00;;;;;;;;5118528;27;45821;-74
2022/09/01 08:43:28;;;;;;;;;13.00;12.00;;;;;;;;5118721;27;45344;-73
2022/09/01 08:45:56;;;;;;;;;16.67;13.67;;;;;;;;5117298;27;45489;-71
2022/09/01 08:48:27;;;;;;;;;12.00;11.00;;;;;;;;5118478;27;46540;-76
2022/09/01 08:50:55;;;;;;;;;10.67;10.00;;;;;;;;5118349;27;45513;-74
2022/09/01 08:53:32;;;;;;;;;8.00;8.00;;;;;;;;5117739;27;45449;-70
2022/09/01 08:55:58;;;;;;;;;13.33;13.00;;;;;;;;5117701;27;45678;-73
2022/09/01 08:58:24;;;;;;;;;11.33;11.33;;;;;;;;5117311;27;45535;-73
2022/09/01 09:00:55;;;;;;;;;10.33;10.33;;;;;;;;5118851;27;45352;-72
2022/09/01 09:03:23;;;;;;;;;14.33;12.67;;;;;;;;5120394;27;45346;-68
2022/09/01 09:05:49;;;;;;;;;17.67;13.33;;;;;;;;5120152;27;45334;-69
2022/09/01 09:08:33;;;;;;;;;12.67;11.67;;;;;;;;5119456;27;45221;-71
2022/09/01 09:11:00;;;;;;;;;12.00;9.00;;;;;;;;5105866;27;45426;-72
2022/09/01 09:13:44;;;;;;;;;14.00;12.67;;;;;;;;5099103;27;45260;-71
2022/09/01 09:16:36;;;;;;;;;10.00;10.00;;;;;;;;5099372;27;45236;-74
2022/09/01 09:19:05;;;;;;;;;12.00;10.00;;;;;;;;4996029;28;46840;-74
2022/09/01 09:21:43;;;;;;;;;11.00;10.67;;;;;;;;4995840;28;45464;-75
2022/09/01 09:24:27;;;;;;;;;18.00;18.00;;;;;;;;4996276;28;45501;-78
2022/09/01 09:26:55;;;;;;;;;14.00;12.00;;;;;;;;5013225;28;45471;-68
2022/09/01 09:29:21;;;;;;;;;14.00;12.00;;;;;;;;5015096;28;45480;-71
2022/09/01 09:31:50;;;;;;;;;14.00;13.00;;;;;;;;5014771;28;45462;-73
2022/09/01 09:34:17;;;;;;;;;13.33;12.33;;;;;;;;5015481;28;45349;-70
2022/09/01 09:36:45;;;;;;;;;13.67;13.00;;;;;;;;5015951;28;45440;-74
2022/09/01 09:39:10;;;;;;;;;13.33;12.33;;;;;;;;5015722;28;46401;-71
2022/09/01 09:41:36;;;;;;;;;12.67;10.33;;;;;;;;5015966;28;45375;-73
2022/09/01 09:44:04;;;;;;;;;11.00;11.00;;;;;;;;5014872;28;45493;-74
2022/09/01 09:46:37;;;;;;;;;12.00;12.00;;;;;;;;5014881;28;45631;-74
2022/09/01 09:49:09;;;;;;;;;13.00;10.33;;;;;;;;5015765;28;45491;-74
2022/09/01 09:51:34;;;;;;;;;10.33;9.67;;;;;;;;5015320;28;45256;-73
2022/09/01 09:54:13;;;;;;;;;11.33;11.33;;;;;;;;5015735;28;45503;-67
2022/09/01 09:56:40;;;;;;;;;15.33;12.33;;;;;;;;5085120;27;45445;-68
2022/09/01 09:59:16;;;;;;;;;15.33;15.00;;;;;;;;5107716;27;46091;-73
2022/09/01 10:01:42;;;;;;;;;8.67;8.67;;;;;;;;5117613;27;45454;-66
2022/09/01 10:04:07;;;;;;;;;8.33;8.33;;;;;;;;5119252;27;45351;-69
2022/09/01 10:06:37;;;;;;;;;11.33;9.67;;;;;;;;5119086;27;45519;-71
2022/09/01 10:09:14;;;;;;;;;9.67;9.33;;;;;;;;5119089;27;45788;-71
2022/09/01 10:11:44;;;;;;;;;8.00;8.00;;;;;;;;5108132;27;45508;-72
2022/09/01 10:14:17;;;;;;;;;9.33;9.00;;;;;;;;5116843;27;45396;-70
2022/09/01 10:16:46;;;;;;;;;10.00;8.67;;;;;;;;5113708;27;45309;-73
2022/09/01 10:19:13;;;;;;;;;7.00;7.00;;;;;;;;5098589;27;47118;-70
2022/09/01 10:21:43;;;;;;;;;8.67;8.67;;;;;;;;5098355;27;45273;-75
2022/09/01 10:24:44;;;;;;;;;12.00;8.25;;;;;;;;5098106;27;45285;-71
2022/09/01 10:27:12;;;;;;;;;8.67;8.67;;;;;;;;5015835;28;45315;-70
2022/09/01 10:29:43;;;;;;;;;14.00;9.25;;;;;;;;5015264;28;45684;-73
2022/09/01 10:32:15;;;;;;;;;6.75;6.75;;;;;;;;5015514;28;45369;-70
2022/09/01 10:34:40;;;;;;;;;11.25;10.00;;;;;;;;5015511;28;45469;-70
2022/09/01 10:37:06;;;;;;;;;11.50;10.25;;;;;;;;5015382;28;45531;-70
2022/09/01 10:39:31;;;;;;;;;8.00;8.00;;;;;;;;5014739;28;47325;-72
2022/09/01 10:41:57;;;;;;;;;7.25;7.25;;;;;;;;5015294;28;45368;-73
2022/09/01 10:44:25;;;;;;;;;7.00;7.00;;;;;;;;5015434;28;45625;-74
2022/09/01 10:46:51;;;;;;;;;8.67;6.00;;;;;;;;5015627;28;45409;-77
2022/09/01 10:49:26;;;;;;;;;13.33;8.67;;;;;;;;5015168;28;46160;-75
2022/09/01 10:51:53;;;;;;;;;6.00;5.33;;;;;;;;5015058;28;45448;-74
2022/09/01 10:54:36;;;;;;;;;6.33;6.33;;;;;;;;5015411;28;45413;-75
2022/09/01 10:57:02;;;;;;;;;7.00;7.00;;;;;;;;5015314;28;45431;-75
2022/09/01 10:59:28;;;;;;;;;8.67;7.00;;;;;;;;5014881;28;45545;-74
2022/09/01 11:01:53;;;;;;;;;7.33;7.33;;;;;;;;5082346;27;45240;-74
2022/09/01 11:04:22;;;;;;;;;5.67;5.67;;;;;;;;5098225;27;45510;-79
2022/09/01 11:06:52;;;;;;;;;9.00;7.67;;;;;;;;5102811;27;45457;-77
2022/09/01 11:09:36;;;;;;;;;8.00;7.00;;;;;;;;5113587;27;46391;-76
2022/09/01 11:12:08;;;;;;;;;6.33;5.67;;;;;;;;5117531;27;45429;-76
2022/09/01 11:14:45;;;;;;;;;10.00;5.33;;;;;;;;5104032;27;45522;-77
2022/09/01 11:17:11;;;;;;;;;4.00;4.00;;;;;;;;5097053;27;45476;-70
2022/09/01 11:19:38;;;;;;;;;8.67;6.67;;;;;;;;5096807;27;46893;-78
2022/09/01 11:22:03;;;;;;;;;9.00;8.00;;;;;;;;5096604;27;45687;-71
2022/09/01 11:24:37;;;;;;;;;8.00;8.00;;;;;;;;5097141;27;45437;-72
2022/09/01 11:27:10;;;;;;;;;8.67;8.67;;;;;;;;5097194;27;45312;-76
2022/09/01 11:30:14;;;;;;;;;8.00;8.00;;;;;;;;5096595;27;45381;-81
2022/09/01 11:32:40;;;;;;;;;9.67;8.00;;;;;;;;5013824;28;45551;-74
2022/09/01 11:35:13;;;;;;;;;6.33;6.33;;;;;;;;5013751;28;45429;-72
2022/09/01 11:37:38;;;;;;;;;8.00;6.33;;;;;;;;5013906;28;45385;-76
2022/09/01 11:40:07;;;;;;;;;7.33;7.33;;;;;;;;5013649;28;45462;-74
2022/09/01 11:42:38;;;;;;;;;7.00;7.00;;;;;;;;5012820;28;45942;-77
2022/09/01 11:45:14;;;;;;;;;7.67;7.33;;;;;;;;5013862;28;45539;-76
2022/09/01 11:47:49;;;;;;;;;5.33;5.33;;;;;;;;5012671;28;45475;-76
2022/09/01 11:50:23;;;;;;;;;6.00;6.00;;;;;;;;5013039;28;45570;-75
2022/09/01 11:52:56;;;;;;;;;9.33;8.00;;;;;;;;5013188;28;45343;-76
2022/09/01 11:55:32;;;;;;;;;12.00;9.00;;;;;;;;5013713;28;45503;-72
2022/09/01 11:57:57;;;;;;;;;9.67;8.67;;;;;;;;5001068;28;45837;-68
2022/09/01 12:00:28;;;;;;;;;10.00;8.33;;;;;;;;5006276;28;46226;-75
2022/09/01 12:02:53;;;;;;;;;8.00;8.00;;;;;;;;5021752;27;45369;-75
2022/09/01 12:05:33;;;;;;;;;10.00;8.00;;;;;;;;5098933;27;45532;-76
2022/09/01 12:08:00;;;;;;;;;10.67;9.00;;;;;;;;5116720;27;45342;-70
2022/09/01 12:10:26;;;;;;;;;10.00;10.00;;;;;;;;5119574;27;45411;-69
2022/09/01 12:13:02;;;;;;;;;11.00;9.67;;;;;;;;5120305;27;45450;-73
2022/09/01 12:15:29;;;;;;;;;11.33;11.33;;;;;;;;5120689;27;45470;-71
2022/09/01 12:18:07;;;;;;;;;10.33;10.33;;;;;;;;5120523;27;45624;-72
2022/09/01 12:20:35;;;;;;;;;10.00;9.33;;;;;;;;5117667;27;47054;-76
2022/09/01 12:23:01;;;;;;;;;11.00;11.00;;;;;;;;5114070;27;45400;-76
2022/09/01 12:25:30;;;;;;;;;8.67;8.67;;;;;;;;5120603;27;45422;-75
2022/09/01 12:27:58;;;;;;;;;8.00;8.00;;;;;;;;5120720;27;45427;-74
2022/09/01 12:30:23;;;;;;;;;9.33;9.00;;;;;;;;5120129;27;46555;-78
2022/09/01 12:32:49;;;;;;;;;11.00;9.67;;;;;;;;5120004;27;45400;-76
2022/09/01 12:35:24;;;;;;;;;11.00;11.00;;;;;;;;5120528;27;45769;-78
2022/09/01 12:37:51;;;;;;;;;13.33;10.33;;;;;;;;5120290;27;45433;-70
2022/09/01 12:40:33;;;;;;;;;11.67;8.00;;;;;;;;5100255;27;45528;-72
2022/09/01 12:42:58;;;;;;;;;10.00;9.00;;;;;;;;5081200;27;45889;-77
2022/09/01 12:45:39;;;;;;;;;10.00;10.00;;;;;;;;5099564;27;45422;-71
2022/09/01 12:48:04;;;;;;;;;11.33;10.00;;;;;;;;5099717;27;45543;-76
2022/09/01 12:50:30;;;;;;;;;12.67;11.00;;;;;;;;5101712;27;45390;-71
2022/09/01 12:53:00;;;;;;;;;10.67;10.67;;;;;;;;5120713;27;45412;-70
2022/09/01 12:55:30;;;;;;;;;10.33;9.33;;;;;;;;5112584;27;45773;-75
2022/09/01 12:57:57;;;;;;;;;9.00;9.00;;;;;;;;5100327;27;45294;-70
2022/09/01 13:00:28;;;;;;;;;11.33;9.67;;;;;;;;5099786;27;46290;-74
2022/09/01 13:02:53;;;;;;;;;10.50;10.50;;;;;;;;5099808;27;45414;-71
2022/09/01 13:05:18;;;;;;;;;9.67;8.00;;;;;;;;5099945;27;45223;-77
2022/09/01 13:07:44;;;;;;;;;9.00;8.00;;;;;;;;5099924;27;45845;-72
2022/09/01 13:10:09;;;;;;;;;14.67;13.00;;;;;;;;5099351;27;46218;-72
2022/09/01 13:12:40;;;;;;;;;10.67;10.67;;;;;;;;5115301;27;45517;-74
2022/09/01 13:15:05;;;;;;;;;8.33;8.33;;;;;;;;5120315;27;45468;-77
2022/09/01 13:17:30;;;;;;;;;11.00;11.00;;;;;;;;5120588;27;45420;-79
2022/09/01 13:19:55;;;;;;;;;10.67;9.33;;;;;;;;5119556;27;46432;-74
2022/09/01 13:22:21;;;;;;;;;11.67;8.00;;;;;;;;5088931;27;45385;-75
2022/09/01 13:24:46;;;;;;;;;12.67;10.33;;;;;;;;5119196;27;45354;-75
2022/09/01 13:27:12;;;;;;;;;10.00;10.00;;;;;;;;5120363;27;45327;-75
2022/09/01 13:29:38;;;;;;;;;8.33;8.33;;;;;;;;5117407;27;46476;-73
2022/09/01 13:32:03;;;;;;;;;7.33;7.00;;;;;;;;5108279;27;45306;-72
2022/09/01 13:34:28;;;;;;;;;8.00;8.00;;;;;;;;5120063;27;45409;-75
2022/09/01 13:36:53;;;;;;;;;12.00;10.00;;;;;;;;5120331;27;45497;-72
2022/09/01 13:39:19;;;;;;;;;8.00;8.00;;;;;;;;5119672;27;46195;-75
2022/09/01 13:41:45;;;;;;;;;7.00;7.00;;;;;;;;5120092;27;45427;-74
2022/09/01 13:44:11;;;;;;;;;11.67;9.67;;;;;;;;5118573;27;45360;-72
2022/09/01 13:46:37;;;;;;;;;10.00;10.00;;;;;;;;5099259;27;45368;-75
2022/09/01 13:49:02;;;;;;;;;10.67;10.00;;;;;;;;5099088;27;46028;-75
2022/09/01 13:51:28;;;;;;;;;13.33;11.67;;;;;;;;5098872;27;45409;-72
2022/09/01 13:53:53;;;;;;;;;8.33;8.33;;;;;;;;5098143;27;45583;-74
2022/09/01 13:56:19;;;;;;;;;8.67;7.67;;;;;;;;5099331;27;45248;-74
2022/09/01 13:58:44;;;;;;;;;7.00;7.00;;;;;;;;5099030;27;45425;-70
2022/09/01 14:01:09;;;;;;;;;6.33;6.33;;;;;;;;5098536;27;45362;-69
2022/09/01 14:03:35;;;;;;;;;8.67;8.00;;;;;;;;5098910;27;45319;-68
2022/09/01 14:06:00;;;;;;;;;9.00;9.00;;;;;;;;5098956;27;45506;-66
2022/09/01 14:08:25;;;;;;;;;8.67;7.67;;;;;;;;5098447;27;45585;-76
2022/09/01 14:10:52;;;;;;;;;8.67;7.67;;;;;;;;5098620;27;45323;-72
2022/09/01 14:13:18;;;;;;;;;9.33;9.33;;;;;;;;5098946;27;45216;-74
2022/09/01 14:15:45;;;;;;;;;9.00;9.00;;;;;;;;5098674;27;45596;-74
2022/09/01 14:18:12;;;;;;;;;10.33;8.00;;;;;;;;5098316;27;46113;-72
2022/09/01 14:20:41;;;;;;;;;8.00;8.00;;;;;;;;5098364;27;45387;-71
2022/09/01 14:23:07;;;;;;;;;7.00;7.00;;;;;;;;5098333;27;45297;-71
2022/09/01 14:25:33;;;;;;;;;8.00;8.00;;;;;;;;5098169;27;45828;-70
2022/09/01 14:28:00;;;;;;;;;9.33;7.67;;;;;;;;5098028;27;45372;-77
2022/09/01 14:30:27;;;;;;;;;6.00;6.00;;;;;;;;5098431;27;45350;-70
2022/09/01 14:32:53;;;;;;;;;7.67;7.67;;;;;;;;5098163;27;45331;-70
2022/09/01 14:35:19;;;;;;;;;13.00;13.00;;;;;;;;5097954;27;45358;-70
2022/09/01 14:37:45;;;;;;;;;8.00;7.00;;;;;;;;5098343;27;46277;-74
2022/09/01 14:40:13;;;;;;;;;8.00;8.00;;;;;;;;5097968;27;45382;-73